Time;durP1;ratioP1;P1;durP2;ratioP2;P2;SDS_P1;SDS_P2;PMS_P1;PMS_P2;Temp;Humidity;BMP_temperature;BMP_pressure;BME280_temperature;BME280_humidity;BME280_pressure;Samples;Min_cycle;Max_cycle;Signal;HPM_P1;HPM_P2
2022/05/26 00:01:04;;;;;;;;;;;;;;;19.01;55.33;100138.16;4427873;32;20021;-78
2022/05/26 00:03:32;;;;;;;;;;;;;;;19.03;55.21;100133.75;4424040;32;19984;-78
2022/05/26 00:06:00;;;;;;;;;;;;;;;19.23;54.37;100133.47;4427352;32;20252;-79
2022/05/26 00:08:27;;;;;;;;;;;;;;;19.00;55.35;100136.41;4420229;32;19981;-78
2022/05/26 00:10:55;;;;;;;;;;;;;;;18.78;55.98;100140.22;4418055;32;20025;-78
2022/05/26 00:13:22;;;;;;;;;;;;;;;18.97;55.68;100140.84;4429050;32;19981;-79
2022/05/26 00:15:49;;;;;;;;;;;;;;;19.17;54.62;100144.03;4429668;32;20000;-79
2022/05/26 00:18:16;;;;;;;;;;;;;;;18.91;55.52;100147.03;4426096;32;19978;-79
2022/05/26 00:20:43;;;;;;;;;;;;;;;18.97;54.86;100146.94;4423884;32;20003;-79
2022/05/26 00:23:10;;;;;;;;;;;;;;;18.98;54.60;100146.06;4422046;32;20728;-77
2022/05/26 00:25:37;;;;;;;;;;;;;;;18.73;55.82;100152.50;4424580;32;20730;-79
2022/05/26 00:28:04;;;;;;;;;;;;;;;18.66;56.06;100156.06;4430954;32;20000;-77
2022/05/26 00:30:31;;;;;;;;;;;;;;;18.60;55.75;100159.63;4429445;32;19997;-79
2022/05/26 00:32:59;;;;;;;;;;;;;;;18.83;55.35;100159.41;4426183;32;19977;-80
2022/05/26 00:35:26;;;;;;;;;;;;;;;19.01;54.62;100159.13;4419385;32;19974;-79
2022/05/26 00:37:53;;;;;;;;;;;;;;;18.99;54.59;100160.94;4425411;32;19992;-79
2022/05/26 00:40:20;;;;;;;;;;;;;;;18.95;55.01;100159.25;4430533;32;20046;-80
2022/05/26 00:42:49;;;;;;;;;;;;;;;18.95;54.93;100167.13;4430475;32;19981;-79
2022/05/26 00:45:16;;;;;;;;;;;;;;;18.95;54.83;100172.37;4429810;32;19977;-79
2022/05/26 00:47:44;;;;;;;;;;;;;;;18.90;55.08;100176.78;4428409;32;20384;-80
2022/05/26 00:50:18;;;;;;;;;;;;;;;18.95;54.58;100168.84;4417834;32;19982;-78
2022/05/26 00:52:47;;;;;;;;;;;;;;;18.83;54.90;100169.88;4426009;32;19994;-80
2022/05/26 00:55:20;;;;;;;;;;;;;;;18.78;54.93;100171.69;4421097;32;20000;-78
2022/05/26 00:57:51;;;;;;;;;;;;;;;18.71;55.36;100175.25;4417050;32;20105;-79
2022/05/26 01:00:19;;;;;;;;;;;;;;;18.85;54.84;100173.34;4415458;32;20048;-79
2022/05/26 01:03:15;;;;;;;;;;;;;;;18.81;54.81;100179.53;4414390;32;19977;-79
2022/05/26 01:05:47;;;;;;;;;;;;;;;18.91;54.24;100183.75;4412270;32;20072;-82
2022/05/26 01:08:18;;;;;;;;;;;;;;;18.97;53.95;100178.44;4422955;32;20263;-79
2022/05/26 01:10:45;;;;;;;;;;;;;;;18.90;54.24;100182.03;4418430;32;20004;-80
2022/05/26 01:13:14;;;;;;;;;;;;;;;18.68;54.94;100191.00;4415179;32;20365;-78
2022/05/26 01:15:41;;;;;;;;;;;;;;;18.80;54.46;100196.16;4430715;32;20000;-79
2022/05/26 01:18:18;;;;;;;;;;;;;;;18.70;54.95;100197.13;4417423;32;20387;-80
2022/05/26 01:21:03;;;;;;;;;;;;;;;18.85;54.05;100189.06;4415801;32;19978;-78
2022/05/26 01:23:30;;;;;;;;;;;;;;;18.80;54.26;100190.91;4424600;32;20469;-78
2022/05/26 01:26:21;;;;;;;;;;;;;;;18.69;54.32;100190.13;4425211;32;20477;-78
2022/05/26 01:28:57;;;;;;;;;;;;;;;18.80;54.06;100190.91;4416490;32;19987;-77
2022/05/26 01:31:27;;;;;;;;;;;;;;;18.82;54.17;100189.13;4423468;32;20318;-78
2022/05/26 01:34:13;;;;;;;;;;;;;;;18.71;54.09;100188.34;4414468;32;20045;-77
2022/05/26 01:36:43;;;;;;;;;;;;;;;18.70;54.27;100194.50;4414929;32;20004;-78
2022/05/26 01:39:25;;;;;;;;;;;;;;;18.78;53.29;100188.28;4428752;32;20041;-78
2022/05/26 01:42:01;;;;;;;;;;;;;;;18.85;53.04;100194.31;4428917;32;20449;-80
2022/05/26 01:44:32;;;;;;;;;;;;;;;18.79;53.06;100194.41;4430012;32;19984;-79
2022/05/26 01:47:01;;;;;;;;;;;;;;;18.61;53.74;100197.22;4408133;32;19986;-80
2022/05/26 01:49:49;;;;;;;;;;;;;;;18.49;53.87;100206.94;4411158;32;20056;-79
2022/05/26 01:52:18;;;;;;;;;;;;;;;18.69;53.08;100203.22;4399581;32;20316;-79
2022/05/26 01:54:49;;;;;;;;;;;;;;;18.66;53.46;100214.63;4387882;32;20595;-79
2022/05/26 01:57:18;;;;;;;;;;;;;;;18.63;53.66;100208.53;4401107;32;20417;-79
2022/05/26 01:59:45;;;;;;;;;;;;;;;18.74;53.39;100211.97;4401814;32;20033;-79
2022/05/26 02:02:23;;;;;;;;;;;;;;;18.54;54.03;100215.62;4401248;32;20568;-79
2022/05/26 02:04:51;;;;;;;;;;;;;;;18.57;54.04;100215.59;4420740;32;19988;-80
2022/05/26 02:07:21;;;;;;;;;;;;;;;18.58;54.17;100217.34;4431905;32;19986;-79
2022/05/26 02:09:47;;;;;;;;;;;;;;;18.56;53.84;100219.09;4431128;32;20502;-79
2022/05/26 02:12:25;;;;;;;;;;;;;;;18.55;54.03;100222.59;4423450;32;20009;-80
2022/05/26 02:15:08;;;;;;;;;;;;;;;18.51;54.07;100231.41;4420825;32;19973;-79
2022/05/26 02:17:37;;;;;;;;;;;;;;;18.54;54.11;100236.59;4428161;32;19999;-78
2022/05/26 02:20:06;;;;;;;;;;;;;;;18.36;54.93;100236.78;4428895;32;20020;-79
2022/05/26 02:22:33;;;;;;;;;;;;;;;18.50;54.87;100239.25;4260402;32;5089200;-78
2022/05/26 02:25:20;;;;;;;;;;;;;;;18.43;54.94;100243.69;4420811;32;20008;-79
2022/05/26 02:27:53;;;;;;;;;;;;;;;18.52;54.53;100243.59;4424815;32;19977;-78
2022/05/26 02:30:21;;;;;;;;;;;;;;;18.52;54.58;100248.84;4415296;32;19986;-78
2022/05/26 02:32:48;;;;;;;;;;;;;;;18.53;54.52;100245.34;4419028;32;19978;-79
2022/05/26 02:35:15;;;;;;;;;;;;;;;18.41;54.64;100248.09;4416241;32;19978;-78
2022/05/26 02:37:42;;;;;;;;;;;;;;;18.37;54.90;100249.00;4423342;32;19977;-79
2022/05/26 02:40:10;;;;;;;;;;;;;;;18.16;55.25;100254.44;4431888;32;19992;-80
2022/05/26 02:42:37;;;;;;;;;;;;;;;18.21;55.45;100250.87;4455892;32;20004;-79
2022/05/26 02:45:05;;;;;;;;;;;;;;;18.29;55.10;100251.69;4453861;32;20040;-80
2022/05/26 02:47:32;;;;;;;;;;;;;;;18.30;54.97;100252.56;4440020;32;20028;-79
2022/05/26 02:50:05;;;;;;;;;;;;;;;18.12;55.45;100253.56;4416141;32;20706;-80
2022/05/26 02:52:34;;;;;;;;;;;;;;;18.18;55.48;100257.91;4421393;32;20322;-79
2022/05/26 02:55:20;;;;;;;;;;;;;;;17.96;56.18;100258.06;4418373;32;19994;-80
2022/05/26 02:57:59;;;;;;;;;;;;;;;18.09;55.87;100259.72;4416508;32;20029;-80
2022/05/26 03:00:29;;;;;;;;;;;;;;;18.00;56.15;100258.94;4420768;32;20373;-80
2022/05/26 03:02:59;;;;;;;;;;;;;;;17.92;56.41;100251.13;4418991;32;19990;-81
2022/05/26 03:05:28;;;;;;;;;;;;;;;18.04;56.04;100251.03;4421741;32;20000;-80
2022/05/26 03:07:56;;;;;;;;;;;;;;;17.98;56.25;100256.31;4427607;32;19986;-80
2022/05/26 03:10:24;;;;;;;;;;;;;;;17.60;57.33;100260.03;4415058;32;20037;-80
2022/05/26 03:12:53;;;;;;;;;;;;;;;17.82;56.76;100254.69;4420260;32;20410;-79
2022/05/26 03:15:19;;;;;;;;;;;;;;;17.75;56.95;100259.06;4420242;32;19994;-80
2022/05/26 03:17:47;;;;;;;;;;;;;;;17.81;56.75;100263.44;4418496;32;19978;-80
2022/05/26 03:20:14;;;;;;;;;;;;;;;17.72;56.96;100266.06;4422576;32;19989;-80
2022/05/26 03:22:40;;;;;;;;;;;;;;;17.65;57.13;100273.09;4423017;32;20025;-80
2022/05/26 03:25:08;;;;;;;;;;;;;;;17.66;56.72;100275.69;4416346;32;19982;-81
2022/05/26 03:27:34;;;;;;;;;;;;;;;17.67;56.81;100276.56;4416691;32;20326;-80
2022/05/26 03:30:01;;;;;;;;;;;;;;;17.81;56.25;100285.25;4423034;32;20029;-80
2022/05/26 03:32:28;;;;;;;;;;;;;;;17.81;56.40;100289.62;4418263;32;20032;-79
2022/05/26 03:43:13;;;;;;;;;;;;;;;17.81;56.53;100297.47;4423070;32;20000;-79
2022/05/26 03:45:40;;;;;;;;;;;;;;;17.99;56.05;100305.19;4416223;32;19970;-80
2022/05/26 03:48:07;;;;;;;;;;;;;;;18.01;55.59;100303.44;4391158;32;20012;-79
2022/05/26 03:50:34;;;;;;;;;;;;;;;17.96;55.93;100305.22;4416006;32;19996;-79
2022/05/26 03:53:01;;;;;;;;;;;;;;;17.97;55.84;100296.50;4417462;32;20071;-79
2022/05/26 03:55:27;;;;;;;;;;;;;;;18.08;55.56;100302.50;4421518;32;19982;-79
2022/05/26 03:57:55;;;;;;;;;;;;;;;17.94;56.11;100307.00;4416166;32;19985;-82
2022/05/26 04:00:22;;;;;;;;;;;;;;;18.10;55.86;100308.63;4417225;32;19995;-82
2022/05/26 04:02:50;;;;;;;;;;;;;;;18.12;56.01;100316.44;4294202;32;19982;-79
2022/05/26 04:05:16;;;;;;;;;;;;;;;18.02;56.06;100307.78;4441559;32;20020;-79
2022/05/26 04:07:43;;;;;;;;;;;;;;;18.19;55.77;100317.28;4417607;32;19985;-81
2022/05/26 04:10:11;;;;;;;;;;;;;;;18.10;56.32;100324.34;4414820;32;20079;-81
2022/05/26 04:12:37;;;;;;;;;;;;;;;17.97;56.82;100327.94;4431445;32;19990;-79
2022/05/26 04:15:05;;;;;;;;;;;;;;;18.06;56.52;100330.50;4430287;32;19974;-79
2022/05/26 04:17:32;;;;;;;;;;;;;;;18.24;55.90;100326.00;4440958;32;19977;-80
2022/05/26 04:19:59;;;;;;;;;;;;;;;18.25;56.23;100339.09;4424024;32;19978;-79
2022/05/26 04:22:26;;;;;;;;;;;;;;;18.31;55.95;100327.66;4417904;32;19973;-79
2022/05/26 04:24:54;;;;;;;;;;;;;;;18.30;56.00;100332.06;4416037;32;19984;-81
2022/05/26 04:27:22;;;;;;;;;;;;;;;18.36;56.08;100331.13;4427097;32;20432;-78
2022/05/26 04:29:49;;;;;;;;;;;;;;;18.39;55.67;100331.13;4415674;32;19981;-84
2022/05/26 04:32:17;;;;;;;;;;;;;;;18.25;56.29;100340.81;4420344;32;20000;-80
2022/05/26 04:34:48;;;;;;;;;;;;;;;18.26;56.25;100343.44;4436467;32;19978;-79
2022/05/26 04:37:15;;;;;;;;;;;;;;;18.37;56.42;100353.84;4429855;32;19997;-83
2022/05/26 04:39:42;;;;;;;;;;;;;;;18.33;56.58;100342.50;4422980;32;20736;-82
2022/05/26 04:42:09;;;;;;;;;;;;;;;18.40;55.83;100343.34;4417189;32;20002;-81
2022/05/26 04:44:38;;;;;;;;;;;;;;;18.64;55.32;100346.66;4414615;32;20001;-79
2022/05/26 04:47:23;;;;;;;;;;;;;;;18.69;55.42;100350.09;4415006;32;20041;-83
2022/05/26 04:49:54;;;;;;;;;;;;;;;18.65;55.82;100349.25;4411261;32;20004;-85
2022/05/26 04:52:24;;;;;;;;;;;;;;;18.80;55.00;100343.03;4412985;32;19999;-79
2022/05/26 04:54:52;;;;;;;;;;;;;;;18.78;55.33;100344.78;4433086;32;19977;-82
2022/05/26 04:57:20;;;;;;;;;;;;;;;18.74;55.16;100353.56;4424617;32;20039;-81
2022/05/26 04:59:50;;;;;;;;;;;;;;;18.83;54.63;100358.75;4418185;32;20012;-82
2022/05/26 05:02:19;;;;;;;;;;;;;;;18.92;53.74;100358.66;4399767;32;19989;-81
2022/05/26 05:04:48;;;;;;;;;;;;;;;18.85;54.37;100362.19;4411150;32;19986;-82
2022/05/26 05:07:17;;;;;;;;;;;;;;;18.76;54.88;100373.66;4422368;32;19985;-82
2022/05/26 05:09:45;;;;;;;;;;;;;;;18.83;54.39;100373.63;4429375;32;19978;-83
2022/05/26 05:12:15;;;;;;;;;;;;;;;18.98;53.78;100369.06;4423334;32;20767;-82
2022/05/26 05:14:44;;;;;;;;;;;;;;;18.88;54.36;100372.66;4421297;32;20061;-83
2022/05/26 05:17:11;;;;;;;;;;;;;;;18.77;54.90;100374.53;4427581;32;20033;-82
2022/05/26 05:19:38;;;;;;;;;;;;;;;19.11;53.38;100372.44;4428228;32;19982;-82
2022/05/26 05:22:17;;;;;;;;;;;;;;;18.93;54.43;100381.38;4432201;32;19985;-82
2022/05/26 05:24:49;;;;;;;;;;;;;;;18.92;53.99;100384.91;4413388;32;19988;-82
2022/05/26 05:27:21;;;;;;;;;;;;;;;18.99;54.59;100386.56;4414119;32;20008;-81
2022/05/26 05:29:47;;;;;;;;;;;;;;;19.32;52.97;100389.72;4432892;32;20001;-84
2022/05/26 05:32:18;;;;;;;;;;;;;;;19.09;53.70;100391.72;4416673;32;20870;-81
2022/05/26 05:34:46;;;;;;;;;;;;;;;18.95;54.69;100395.34;4415222;32;20665;-81
2022/05/26 05:37:13;;;;;;;;;;;;;;;19.24;52.94;100391.53;4404721;32;20020;-82
2022/05/26 05:39:40;;;;;;;;;;;;;;;19.34;52.58;100397.59;4424487;32;19985;-83
2022/05/26 05:42:07;;;;;;;;;;;;;;;19.08;54.39;100405.72;4424076;32;20036;-82
2022/05/26 05:44:34;;;;;;;;;;;;;;;19.49;52.18;100407.91;4431597;32;20357;-82
2022/05/26 05:47:01;;;;;;;;;;;;;;;19.50;52.76;100413.16;4417612;32;19985;-82
2022/05/26 05:49:29;;;;;;;;;;;;;;;19.63;51.66;100410.41;4418150;32;20339;-82
2022/05/26 05:51:59;;;;;;;;;;;;;;;19.56;51.68;100411.31;4440563;32;19999;-81
2022/05/26 05:54:26;;;;;;;;;;;;;;;19.68;50.83;100408.59;4417559;32;19977;-82
2022/05/26 05:56:53;;;;;;;;;;;;;;;19.75;51.18;100412.91;4419565;32;20202;-82
2022/05/26 05:59:20;;;;;;;;;;;;;;;19.76;50.24;100412.00;4438494;32;19970;-82
2022/05/26 06:01:47;;;;;;;;;;;;;;;19.69;50.88;100410.34;4443131;32;19989;-82
2022/05/26 06:04:14;;;;;;;;;;;;;;;19.80;49.81;100408.44;4443484;32;20033;-83
2022/05/26 06:06:42;;;;;;;;;;;;;;;19.75;51.43;100415.53;4438620;32;19992;-82
2022/05/26 06:09:10;;;;;;;;;;;;;;;19.93;50.87;100414.41;4432463;32;20000;-82
2022/05/26 06:11:40;;;;;;;;;;;;;;;20.26;49.76;100410.47;4439952;32;20121;-83
2022/05/26 06:14:07;;;;;;;;;;;;;;;20.39;49.99;100414.66;4442123;32;19989;-83
2022/05/26 06:16:34;;;;;;;;;;;;;;;20.64;50.15;100419.53;4438548;32;19992;-83
2022/05/26 06:19:02;;;;;;;;;;;;;;;20.88;49.01;100419.16;4433160;32;20028;-85
2022/05/26 06:21:28;;;;;;;;;;;;;;;21.12;48.86;100427.50;4441089;32;20321;-85
2022/05/26 06:23:56;;;;;;;;;;;;;;;21.39;45.79;100435.84;4434195;32;19992;-85
2022/05/26 06:26:24;;;;;;;;;;;;;;;21.80;44.67;100432.41;4427300;32;20025;-84
2022/05/26 06:31:37;;;;;;;;;;;;;;;22.20;44.67;100450.91;4441922;32;20429;-88
2022/05/26 06:39:36;;;;;;;;;;;;;;;22.28;44.95;100456.03;4435650;32;19992;-83
2022/05/26 06:42:06;;;;;;;;;;;;;;;23.05;41.96;100460.37;4446023;32;19989;-85
2022/05/26 06:44:38;;;;;;;;;;;;;;;23.10;43.64;100457.59;4445980;32;20004;-84
2022/05/26 06:47:06;;;;;;;;;;;;;;;23.43;42.18;100461.16;4444695;32;19986;-84
2022/05/26 06:49:34;;;;;;;;;;;;;;;23.44;43.20;100458.44;4444588;32;19985;-85
2022/05/26 06:52:02;;;;;;;;;;;;;;;23.73;41.97;100461.25;4431904;32;19993;-83
2022/05/26 06:54:30;;;;;;;;;;;;;;;23.49;43.34;100450.41;4446722;32;20336;-85
2022/05/26 06:56:57;;;;;;;;;;;;;;;23.67;44.21;100455.19;4446333;32;20707;-84
2022/05/26 06:59:25;;;;;;;;;;;;;;;24.08;43.51;100450.50;4444949;32;19987;-84
2022/05/26 07:01:52;;;;;;;;;;;;;;;24.09;43.11;100452.25;4445726;32;20342;-85
2022/05/26 07:04:19;;;;;;;;;;;;;;;24.44;41.97;100447.69;4432297;32;19984;-84
2022/05/26 07:06:50;;;;;;;;;;;;;;;24.58;42.00;100450.75;4430509;32;20032;-85
2022/05/26 07:09:17;;;;;;;;;;;;;;;25.01;40.55;100441.38;4430864;32;19985;-85
2022/05/26 07:11:46;;;;;;;;;;;;;;;25.06;41.00;100436.81;4445859;32;19989;-85
2022/05/26 07:14:13;;;;;;;;;;;;;;;25.44;39.86;100447.03;4440725;32;20048;-85
2022/05/26 07:16:40;;;;;;;;;;;;;;;25.44;40.27;100447.91;4430132;32;20327;-85
2022/05/26 07:19:08;;;;;;;;;;;;;;;25.66;39.19;100442.69;4432131;32;19984;-82
2022/05/26 07:21:35;;;;;;;;;;;;;;;25.85;39.42;100450.00;4441857;32;21009;-83
2022/05/26 07:24:02;;;;;;;;;;;;;;;25.86;39.26;100449.94;4430419;32;19989;-85
2022/05/26 07:26:34;;;;;;;;;;;;;;;25.86;39.49;100449.94;4407422;32;19989;-85
2022/05/26 07:29:02;;;;;;;;;;;;;;;25.62;42.30;100453.44;4444577;32;19977;-83
2022/05/26 07:31:29;;;;;;;;;;;;;;;26.08;39.28;100450.00;4430822;32;19981;-84
2022/05/26 07:33:56;;;;;;;;;;;;;;;26.59;37.22;100454.22;4446026;32;19997;-85
2022/05/26 07:41:57;;;;;;;;;;;;;;;26.64;37.94;100454.91;4426439;32;19981;-84
2022/05/26 07:44:24;;;;;;;;;;;;;;;26.93;36.42;100454.59;4431991;32;19969;-85
2022/05/26 07:46:51;;;;;;;;;;;;;;;26.65;38.67;100461.94;4430849;32;19986;-89
2022/05/26 07:49:19;;;;;;;;;;;;;;;26.98;37.28;100463.25;4446481;32;19995;-89
2022/05/26 07:51:45;;;;;;;;;;;;;;;26.98;37.33;100464.13;4429278;32;20019;-86
2022/05/26 07:54:12;;;;;;;;;;;;;;;27.18;37.60;100467.75;4446072;32;20001;-86
2022/05/26 07:56:40;;;;;;;;;;;;;;;27.36;36.20;100472.28;4449028;32;20009;-87
2022/05/26 07:59:08;;;;;;;;;;;;;;;27.33;36.77;100470.63;4430542;32;19997;-86
2022/05/26 08:01:35;;;;;;;;;;;;;;;26.98;37.69;100477.41;4431497;32;19981;-87
2022/05/26 08:04:05;;;;;;;;;;;;;;;27.27;36.36;100470.87;4430177;32;19991;-88
2022/05/26 08:06:33;;;;;;;;;;;;;;;27.24;36.31;100476.31;4444060;32;20391;-87
2022/05/26 08:09:00;;;;;;;;;;;;;;;27.50;35.71;100477.00;4445698;32;19997;-88
2022/05/26 08:11:27;;;;;;;;;;;;;;;27.85;34.07;100477.25;4430904;32;19992;-89
2022/05/26 08:13:56;;;;;;;;;;;;;;;27.66;34.69;100472.72;4443874;32;19996;-89
2022/05/26 08:16:23;;;;;;;;;;;;;;;27.15;38.75;100460.78;4445821;32;19997;-88
2022/05/26 08:18:50;;;;;;;;;;;;;;;27.20;36.02;100469.44;4438404;32;20318;-83
2022/05/26 08:21:18;;;;;;;;;;;;;;;27.20;35.62;100468.56;4435152;32;20016;-88
2022/05/26 08:23:45;;;;;;;;;;;;;;;27.51;36.37;100468.97;4438420;32;20026;-88
2022/05/26 08:26:12;;;;;;;;;;;;;;;27.45;35.26;100469.22;4418393;32;20077;-83
2022/05/26 08:28:39;;;;;;;;;;;;;;;27.96;32.82;100467.84;4414601;32;20055;-87
2022/05/26 08:31:08;;;;;;;;;;;;;;;27.98;31.78;100467.78;4419967;32;20049;-85
2022/05/26 08:33:37;;;;;;;;;;;;;;;27.52;34.60;100475.13;4419275;32;19982;-85
2022/05/26 08:36:05;;;;;;;;;;;;;;;27.73;35.26;100463.56;4416111;32;19985;-89
2022/05/26 08:38:32;;;;;;;;;;;;;;;27.41;35.84;100469.41;4422484;32;20147;-87
2022/05/26 08:40:59;;;;;;;;;;;;;;;27.50;35.85;100466.34;4415641;32;20315;-88
2022/05/26 08:43:29;;;;;;;;;;;;;;;28.05;33.48;100469.25;4421831;32;19992;-82
2022/05/26 08:45:56;;;;;;;;;;;;;;;28.19;33.00;100471.25;4424435;32;19977;-83
2022/05/26 08:48:42;;;;;;;;;;;;;;;28.01;34.69;100470.28;4417292;32;19994;-84
2022/05/26 08:51:10;;;;;;;;;;;;;;;28.07;36.86;100478.00;4417040;32;20379;-82
2022/05/26 08:53:37;;;;;;;;;;;;;;;27.99;34.80;100477.50;4414157;32;19999;-81
2022/05/26 08:56:04;;;;;;;;;;;;;;;28.26;34.48;100478.88;4414102;32;20005;-79
2022/05/26 08:58:46;;;;;;;;;;;;;;;28.85;32.17;100476.09;4421463;32;20035;-84
2022/05/26 09:01:20;;;;;;;;;;;;;;;28.31;35.69;100475.16;4415584;32;19982;-82
2022/05/26 09:03:47;;;;;;;;;;;;;;;28.77;31.68;100472.94;4415602;32;19978;-82
2022/05/26 09:06:17;;;;;;;;;;;;;;;28.97;31.89;100478.13;4420749;32;20020;-83
2022/05/26 09:14:27;;;;;;;;;;;;;;;27.98;37.02;100479.31;4415235;32;20445;-82
2022/05/26 09:16:56;;;;;;;;;;;;;;;28.80;32.09;100478.13;4418646;32;20035;-82
2022/05/26 09:19:24;;;;;;;;;;;;;;;28.55;33.39;100483.78;4429092;32;20008;-81
2022/05/26 09:21:51;;;;;;;;;;;;;;;28.66;32.41;100482.31;4408352;32;19989;-81
2022/05/26 09:24:26;;;;;;;;;;;;;;;28.76;31.16;100482.75;4414883;32;20035;-81
2022/05/26 09:27:14;;;;;;;;;;;;;;;28.47;34.08;100486.81;4402867;32;20024;-83
2022/05/26 09:29:42;;;;;;;;;;;;;;;28.69;31.86;100482.19;4423778;32;19985;-83
2022/05/26 09:32:14;;;;;;;;;;;;;;;28.79;33.80;100481.72;4428407;32;20082;-81
2022/05/26 09:35:03;;;;;;;;;;;;;;;28.93;31.61;100474.75;4417819;32;19992;-82
2022/05/26 09:37:57;;;;;;;;;;;;;;;29.02;32.74;100478.81;4422595;32;19992;-82
2022/05/26 09:40:28;;;;;;;;;;;;;;;28.83;35.38;100475.31;4416627;32;19982;-82
2022/05/26 09:42:58;;;;;;;;;;;;;;;28.70;32.51;100473.25;4419449;32;20048;-82
2022/05/26 09:45:44;;;;;;;;;;;;;;;28.77;33.77;100467.59;4441517;32;19981;-81
2022/05/26 09:48:30;;;;;;;;;;;;;;;29.06;29.81;100453.72;4432334;32;20031;-81
2022/05/26 09:51:06;;;;;;;;;;;;;;;29.51;29.37;100470.94;4429574;32;20700;-83
2022/05/26 09:53:38;;;;;;;;;;;;;;;29.19;30.19;100465.47;4392791;32;20021;-82
2022/05/26 09:56:07;;;;;;;;;;;;;;;29.79;26.57;100469.50;4405546;32;19981;-83
2022/05/26 09:58:37;;;;;;;;;;;;;;;28.39;30.66;100467.63;4417207;32;20001;-81
2022/05/26 10:01:06;;;;;;;;;;;;;;;28.70;31.09;100470.56;4408581;32;19989;-84
2022/05/26 10:03:52;;;;;;;;;;;;;;;28.70;30.12;100475.91;4423504;32;19981;-81
2022/05/26 10:06:22;;;;;;;;;;;;;;;28.79;29.22;100476.41;4402868;32;20034;-81
2022/05/26 10:08:59;;;;;;;;;;;;;;;28.42;32.20;100468.38;4413025;32;19971;-82
2022/05/26 10:11:29;;;;;;;;;;;;;;;29.07;28.42;100476.78;4431589;32;19986;-81
2022/05/26 10:13:56;;;;;;;;;;;;;;;28.83;29.27;100472.62;4432063;32;20068;-85
2022/05/26 10:16:36;;;;;;;;;;;;;;;28.91;28.71;100470.47;4414235;32;19989;-83
2022/05/26 10:19:16;;;;;;;;;;;;;;;27.22;29.55;100472.00;4415389;32;20001;-86
2022/05/26 10:21:46;;;;;;;;;;;;;;;27.41;29.90;100472.06;4407134;32;19990;-84
2022/05/26 10:24:19;;;;;;;;;;;;;;;28.42;30.18;100472.84;4410905;32;20033;-84
2022/05/26 10:26:49;;;;;;;;;;;;;;;28.07;28.66;100462.03;4409199;32;20654;-85
2022/05/26 10:29:20;;;;;;;;;;;;;;;28.15;26.85;100465.22;4402576;32;19982;-85
2022/05/26 10:31:57;;;;;;;;;;;;;;;28.56;29.04;100465.06;4416937;32;19992;-86
2022/05/26 10:34:35;;;;;;;;;;;;;;;28.75;27.13;100465.03;4414781;32;19986;-84
2022/05/26 10:37:10;;;;;;;;;;;;;;;28.97;26.75;100470.13;4410102;32;19987;-84
2022/05/26 10:39:40;;;;;;;;;;;;;;;28.82;27.48;100466.44;4401821;32;20030;-86
2022/05/26 10:42:09;;;;;;;;;;;;;;;29.06;26.65;100459.03;4414962;32;19986;-85
2022/05/26 10:44:38;;;;;;;;;;;;;;;29.00;26.29;100479.78;4416100;32;20446;-85
2022/05/26 10:47:16;;;;;;;;;;;;;;;29.10;25.64;100465.97;4416577;32;19974;-85
2022/05/26 10:49:44;;;;;;;;;;;;;;;29.70;23.72;100464.66;4402394;32;19986;-85
2022/05/26 10:52:16;;;;;;;;;;;;;;;28.25;29.10;100460.31;4393506;32;20065;-84
2022/05/26 10:54:46;;;;;;;;;;;;;;;28.99;26.18;100457.59;4425915;32;20107;-85
2022/05/26 10:57:15;;;;;;;;;;;;;;;28.50;29.85;100460.03;4420256;32;20342;-86
2022/05/26 10:59:46;;;;;;;;;;;;;;;28.98;27.49;100471.88;4423540;32;19989;-85
2022/05/26 11:02:32;;;;;;;;;;;;;;;28.82;29.91;100455.78;4430557;32;20337;-86
2022/05/26 11:05:31;;;;;;;;;;;;;;;29.43;26.18;100459.81;4430662;32;20016;-84
2022/05/26 11:08:05;;;;;;;;;;;;;;;29.09;28.03;100453.56;4413847;32;19977;-84
2022/05/26 11:10:37;;;;;;;;;;;;;;;28.99;29.74;100462.94;4421413;32;20019;-84
2022/05/26 11:13:05;;;;;;;;;;;;;;;28.60;28.59;100461.31;4415816;32;20003;-82
2022/05/26 11:18:34;;;;;;;;;;;;;;;29.02;26.60;100457.47;4409243;32;19982;-80
2022/05/26 11:21:00;;;;;;;;;;;;;;;29.39;27.33;100450.28;4416632;32;20312;-80
2022/05/26 11:23:30;;;;;;;;;;;;;;;29.58;25.40;100439.47;4408688;32;20000;-80
2022/05/26 11:25:59;;;;;;;;;;;;;;;28.67;27.68;100441.41;4424248;32;20948;-80
2022/05/26 11:28:34;;;;;;;;;;;;;;;28.51;27.67;100435.12;4415583;32;20041;-79
2022/05/26 11:36:43;;;;;;;;;;;;;;;28.19;30.85;100439.31;4417284;32;19993;-79
2022/05/26 11:39:16;;;;;;;;;;;;;;;28.72;28.12;100434.06;4416079;32;19982;-82
2022/05/26 11:41:48;;;;;;;;;;;;;;;29.11;26.75;100429.50;4422636;32;20029;-82
2022/05/26 11:44:28;;;;;;;;;;;;;;;29.06;26.57;100429.72;4417432;32;20004;-80
2022/05/26 11:47:16;;;;;;;;;;;;;;;28.93;27.43;100436.59;4409063;32;19981;-82
2022/05/26 11:49:42;;;;;;;;;;;;;;;27.81;28.28;100432.16;4416351;32;20040;-82
2022/05/26 11:52:25;;;;;;;;;;;;;;;28.10;30.63;100429.94;4430925;32;19985;-81
2022/05/26 11:54:52;;;;;;;;;;;;;;;27.79;28.73;100418.09;4412665;32;19994;-82
2022/05/26 11:57:41;;;;;;;;;;;;;;;28.20;29.68;100415.25;4401626;32;19989;-81
2022/05/26 12:00:11;;;;;;;;;;;;;;;28.44;26.63;100423.91;4425132;32;20032;-82
2022/05/26 12:02:38;;;;;;;;;;;;;;;28.46;29.50;100415.81;4403551;32;20003;-80
2022/05/26 12:05:24;;;;;;;;;;;;;;;28.02;29.79;100421.47;4430610;32;19994;-81
2022/05/26 12:07:51;;;;;;;;;;;;;;;27.62;28.43;100407.31;4417463;32;20001;-82
2022/05/26 12:10:24;;;;;;;;;;;;;;;28.07;28.76;100408.78;4395992;32;20064;-81
2022/05/26 12:13:11;;;;;;;;;;;;;;;28.69;26.69;100396.91;4402186;32;19990;-82
2022/05/26 12:15:38;;;;;;;;;;;;;;;28.67;26.59;100387.28;4431175;32;20045;-82
2022/05/26 12:18:05;;;;;;;;;;;;;;;28.58;26.68;100399.25;4416109;32;19989;-84
2022/05/26 12:20:35;;;;;;;;;;;;;;;28.08;28.29;100389.25;4406142;32;20364;-81
2022/05/26 12:23:03;;;;;;;;;;;;;;;27.69;30.50;100392.78;4406080;32;20005;-82
2022/05/26 12:25:37;;;;;;;;;;;;;;;27.85;29.17;100387.66;4395830;32;19993;-83
2022/05/26 12:28:10;;;;;;;;;;;;;;;28.31;27.71;100392.59;4417115;32;19981;-81
2022/05/26 12:30:44;;;;;;;;;;;;;;;27.86;29.99;100383.22;4426017;32;20018;-82
2022/05/26 12:33:18;;;;;;;;;;;;;;;27.80;28.73;100379.87;4415853;32;20041;-82
2022/05/26 12:36:04;;;;;;;;;;;;;;;27.63;28.79;100382.41;4405263;32;19990;-83
2022/05/26 12:38:37;;;;;;;;;;;;;;;27.47;29.62;100381.38;4417649;32;19982;-81
2022/05/26 12:41:10;;;;;;;;;;;;;;;27.21;30.48;100377.25;4422340;32;19991;-81
2022/05/26 12:43:54;;;;;;;;;;;;;;;27.43;31.43;100385.13;4425615;32;20012;-78
2022/05/26 12:46:27;;;;;;;;;;;;;;;27.24;31.46;100380.63;4419581;32;20424;-81
2022/05/26 12:49:04;;;;;;;;;;;;;;;27.56;30.47;100386.28;4415520;32;20017;-81
2022/05/26 12:51:35;;;;;;;;;;;;;;;26.77;31.56;100375.56;4401704;32;19982;-81
2022/05/26 12:54:02;;;;;;;;;;;;;;;26.96;32.15;100380.06;4401451;32;20303;-80
2022/05/26 12:56:47;;;;;;;;;;;;;;;27.57;28.90;100377.41;4401253;32;20521;-81
2022/05/26 12:59:15;;;;;;;;;;;;;;;26.85;32.14;100384.06;4400451;32;19990;-82
2022/05/26 13:01:47;;;;;;;;;;;;;;;27.64;30.16;100378.84;4408513;32;20025;-80
2022/05/26 13:04:22;;;;;;;;;;;;;;;27.04;30.12;100372.66;4397441;32;19985;-84
2022/05/26 13:06:49;;;;;;;;;;;;;;;27.17;29.72;100368.53;4402315;32;20008;-81
2022/05/26 13:09:18;;;;;;;;;;;;;;;27.21;30.24;100367.47;4408504;32;20050;-81
2022/05/26 13:11:50;;;;;;;;;;;;;;;27.89;29.01;100361.75;4439583;32;20001;-81
2022/05/26 13:14:21;;;;;;;;;;;;;;;28.11;28.77;100358.94;4408269;32;19993;-83
2022/05/26 13:16:48;;;;;;;;;;;;;;;28.09;28.94;100366.16;4430348;32;19997;-80
2022/05/26 13:19:19;;;;;;;;;;;;;;;28.04;32.36;100355.69;4430198;32;20087;-81
2022/05/26 13:21:53;;;;;;;;;;;;;;;27.67;28.83;100352.09;4409194;32;20028;-81
2022/05/26 13:24:29;;;;;;;;;;;;;;;28.06;28.25;100353.84;4404766;32;20034;-81
2022/05/26 13:27:00;;;;;;;;;;;;;;;27.93;29.56;100353.56;4400760;32;20334;-81
2022/05/26 13:29:27;;;;;;;;;;;;;;;27.84;29.24;100347.81;4404712;32;20020;-81